LX2359 / HB-JBG 7700 Squawk Report (19th of August, 2022)

Aircraft BCS1 Reg No. HB-JBG Age 5 years old
Model CS-100 Jet engines 2 First flight 26-02-17
Registered 19-04-18 Rollout N/A Delivered 03-04-17
Construction No. 50016 Line No. N/A Series BD-500-1A10
ADSHEX 4B17E4 Airline name Swiss International Air Lines Owner N/A
Airfield based Zurich-Kloten~Zurich~HB First tracked N/A

Flight history for HB-JBG

Route Flight No Date Playback
Cote D Azur (NCE) - Zurich (ZRH) LX561 2022-10-07 18:27:00
Zurich (ZRH) - Cote D Azur (NCE) LX560 2022-10-07 16:33:00
Václav Havel Airport Prague (PRG) - Zurich (ZRH) LX1487 2022-10-07 14:10:00
Zurich (ZRH) - Václav Havel Airport Prague (PRG) LX1486 2022-10-07 13:07:00
Dusseldorf (DUS) - Zurich (ZRH) LX1017 2022-10-07 09:58:00
Zurich (ZRH) - Dusseldorf (DUS) LX1016 2022-10-07 07:52:00
Graz (GRZ) - Zurich (ZRH) LX1513 2022-10-07 05:37:00
Zurich (ZRH) - Graz (GRZ) LX1512 2022-10-06 16:17:00
Luxembourg (LUX) - Zurich (ZRH) LX755 2022-10-06 15:04:00
Zurich (ZRH) - Luxembourg (LUX) LX754 2022-10-06 12:43:00
Manchester (MAN) - Zurich (ZRH) LX391 2022-10-06 10:34:00
Zurich (ZRH) - Manchester (MAN) LX390 2022-10-06 08:17:00
Hamburg (HAM) - Zurich (ZRH) LX1059 2022-10-06 04:11:00
Zurich (ZRH) - Hamburg (HAM) LX1058 2022-10-05 16:58:00
Gardermoen (OSL) - Zurich (ZRH) LX1211 2022-10-05 14:16:00
Zurich (ZRH) - Gardermoen (OSL) LX1210 2022-10-05 10:11:00
Charles De Gaulle (CDG) - Zurich (ZRH) LX647 2022-10-05 07:06:00
Zurich (ZRH) - Charles De Gaulle (CDG) LX646 2022-10-05 05:48:00
Luxembourg (LUX) - Zurich (ZRH) LX759 2022-10-04 17:44:00
Zurich (ZRH) - Luxembourg (LUX) LX758 2022-10-04 16:24:00
Time Lat Lon Altitude Heading Speed Vertical Rate
2022-08-19 15:13:37 GMT 40.899773 14.319992 650 239 130 -704
2022-08-19 15:13:33 GMT 40.901138 14.322876 700 239 129 -896
2022-08-19 15:13:24 GMT 40.904434 14.329956 825 238 129 -576
2022-08-19 15:13:13 GMT 40.907639 14.336609 950 238 127 -896
2022-08-19 15:13:03 GMT 40.910706 14.343140 1,075 239 128 -768
2022-08-19 15:12:53 GMT 40.913830 14.349892 1,200 239 128 -832
2022-08-19 15:12:42 GMT 40.917160 14.357056 1,325 239 127 -704
2022-08-19 15:12:31 GMT 40.920456 14.364136 1,425 239 126 -576
2022-08-19 15:12:22 GMT 40.923431 14.370483 1,550 239 129 -640
2022-08-19 15:12:13 GMT 40.926495 14.376921 1,675 239 134 -832
2022-08-19 15:12:01 GMT 40.930077 14.384599 1,800 239 135 -1024
2022-08-19 15:11:52 GMT 40.933228 14.391357 1,950 239 143 -896
2022-08-19 15:11:42 GMT 40.936935 14.399231 2,100 238 152 -1024
2022-08-19 15:11:32 GMT 40.940739 14.407258 2,225 240 159 -896
2022-08-19 15:11:21 GMT 40.945038 14.416626 2,400 238 163 -1280
2022-08-19 15:11:10 GMT 40.949165 14.425299 2,575 238 169 -1216
2022-08-19 15:11:01 GMT 40.953445 14.434162 2,750 238 168 -960
2022-08-19 15:10:51 GMT 40.957172 14.442153 2,925 239 165 -896
2022-08-19 15:10:39 GMT 40.961967 14.452452 3,100 239 164 -1024
2022-08-19 15:10:30 GMT 40.965683 14.460388 3,250 239 164 -960
2022-08-19 15:10:20 GMT 40.969601 14.468744 3,400 239 166 -1024
2022-08-19 15:10:10 GMT 40.973465 14.477047 3,550 239 167 -1024
2022-08-19 15:09:53 GMT 40.980774 14.492652 3,875 239 168 -1152
2022-08-19 15:09:00 GMT 41.002979 14.540405 4,850 239 179 -1216
2022-08-19 15:08:48 GMT 41.008667 14.552612 5,075 239 183 -1088
2022-08-19 15:08:32 GMT 41.015640 14.567621 5,350 238 192 -704
2022-08-19 15:08:26 GMT 41.018555 14.573853 5,425 238 192 -704
2022-08-19 15:08:19 GMT 41.021896 14.580872 5,525 238 195 -1088
2022-08-19 15:08:07 GMT 41.027298 14.592163 5,700 238 201 -1088
2022-08-19 15:06:07 GMT 41.023270 14.731079 9,250 348 268 -704
2022-08-19 15:05:57 GMT 41.010426 14.733478 9,375 1 281 -576
2022-08-19 15:05:49 GMT 41.000511 14.732354 9,450 11 289 -832
2022-08-19 15:05:45 GMT 40.995762 14.730981 9,500 16 293 -1408
2022-08-19 15:05:37 GMT 40.984219 14.725300 9,675 26 300 -896
2022-08-19 15:05:26 GMT 40.971863 14.714417 9,875 41 309 -960
2022-08-19 15:05:16 GMT 40.959869 14.697897 10,050 55 315 -896
2022-08-19 15:05:03 GMT 40.951675 14.681152 10,175 58 319 -768
2022-08-19 15:04:56 GMT 40.945633 14.668091 10,300 58 324 -960
2022-08-19 15:04:44 GMT 40.936295 14.648499 10,625 57 329 -1920
2022-08-19 15:04:41 GMT 40.934143 14.644104 10,625 56 329 -2112
2022-08-19 15:04:35 GMT 40.928055 14.632629 10,825 52 328 -1536
2022-08-19 15:04:32 GMT 40.925610 14.628733 10,875 46 327 -960
2022-08-19 15:04:25 GMT 40.917160 14.618164 10,975 33 326 -896
2022-08-19 15:04:22 GMT 40.914185 14.615479 11,025 30 325 -1024
2022-08-19 15:04:14 GMT 40.903107 14.608521 11,150 15 320 -1088
2022-08-19 15:04:09 GMT 40.897064 14.606384 11,200 12 319 -1024
2022-08-19 15:04:06 GMT 40.890976 14.605347 11,300 1 315 -896
2022-08-19 15:04:01 GMT 40.885296 14.605324 11,350 320 309 -832
2022-08-19 15:03:54 GMT 40.873810 14.608093 11,425 343 309 -704
2022-08-19 15:03:50 GMT 40.869652 14.610193 11,475 335 309 -576
2022-08-19 15:03:45 GMT 40.861973 14.615936 11,525 324 309 -704
2022-08-19 15:03:41 GMT 40.858574 14.619370 11,600 318 308 -896
2022-08-19 15:03:35 GMT 40.852249 14.627258 11,650 313 309 -960
2022-08-19 15:03:29 GMT 40.847309 14.634850 11,725 305 310 -1024
2022-08-19 15:03:24 GMT 40.842636 14.643738 11,825 302 311 -1024
2022-08-19 15:03:19 GMT 40.839207 14.651829 11,900 296 311 -896
2022-08-19 15:03:14 GMT 40.836273 14.660767 11,975 290 312 -960
2022-08-19 15:03:10 GMT 40.832596 14.679045 12,125 278 314 -960
2022-08-19 15:03:04 GMT 40.832596 14.679045 12,125 278 314 -960
2022-08-19 15:03:00 GMT 40.831993 14.686286 12,175 273 316 -1024
2022-08-19 15:02:55 GMT 40.831944 14.697834 12,275 266 319 -960
2022-08-19 15:02:49 GMT 40.832794 14.707336 12,350 261 320 -832
2022-08-19 15:02:39 GMT 40.836880 14.725675 12,475 246 328 -960
2022-08-19 15:02:36 GMT 40.839161 14.732229 12,525 244 330 -1024
2022-08-19 15:02:33 GMT 40.841862 14.738596 12,575 239 335 -1216
2022-08-19 15:02:29 GMT 40.844234 14.743840 12,650 239 336 -1280
2022-08-19 15:02:26 GMT 40.846802 14.749268 12,700 239 339 -1536
2022-08-19 15:02:19 GMT 40.852661 14.761597 12,900 239 344 -2048
2022-08-19 15:02:16 GMT 40.855179 14.766968 13,000 239 345 -2304
2022-08-19 15:02:09 GMT 40.861042 14.779295 13,250 238 346 -2368
2022-08-19 15:02:04 GMT 40.865089 14.787910 13,450 238 346 -2496
2022-08-19 15:01:56 GMT 40.872074 14.802579 13,800 238 347 -4352
2022-08-19 15:01:46 GMT 40.881042 14.820923 14,525 236 348 -4160
2022-08-19 15:01:43 GMT 40.884224 14.827049 14,750 235 350 -4032
2022-08-19 15:01:39 GMT 40.887856 14.833665 14,975 233 351 -3968
2022-08-19 15:01:34 GMT 40.892761 14.841980 15,300 231 352 -3968
2022-08-19 15:01:29 GMT 40.897980 14.850281 15,600 230 354 -4032
2022-08-19 15:01:24 GMT 40.903564 14.858765 15,950 230 355 -4032
2022-08-19 15:01:13 GMT 40.914715 14.875800 16,600 230 360 -3840
2022-08-19 15:01:04 GMT 40.925583 14.892395 17,200 230 366 -4160
2022-08-19 15:00:53 GMT 40.937294 14.910258 17,850 230 372 -3136
2022-08-19 15:00:45 GMT 40.947254 14.925426 18,300 230 375 -3136
2022-08-19 15:00:32 GMT 40.960430 14.945526 18,875 230 377 -2944
2022-08-19 15:00:23 GMT 40.972458 14.963928 19,375 230 380 -3072
2022-08-19 15:00:12 GMT 40.984173 14.981731 19,875 230 384 -3136
2022-08-19 15:00:02 GMT 40.995857 14.999584 20,375 230 388 -3328
2022-08-19 14:59:51 GMT 41.008438 15.018860 20,950 230 390 -3328
2022-08-19 14:59:42 GMT 41.020390 15.037162 21,475 230 393 -3264
2022-08-19 14:59:38 GMT 41.024551 15.043518 21,650 230 395 -3200
2022-08-19 14:59:31 GMT 41.032379 15.055603 21,975 230 396 -3136
2022-08-19 14:59:27 GMT 41.037754 15.063941 22,200 230 397 -2944
2022-08-19 14:59:21 GMT 41.044601 15.074524 22,450 230 400 -2688
2022-08-19 14:59:17 GMT 41.049019 15.081420 22,625 231 403 -2688
2022-08-19 14:59:10 GMT 41.057053 15.094177 22,925 232 406 -3456
2022-08-19 14:59:07 GMT 41.061264 15.101135 23,150 234 406 -4416
2022-08-19 14:59:00 GMT 41.069275 15.116272 23,675 241 411 -4608
2022-08-19 14:58:56 GMT 41.072342 15.123492 23,900 245 414 -4672
2022-08-19 14:58:50 GMT 41.077087 15.137412 24,350 251 419 -4544
2022-08-19 14:58:45 GMT 41.080536 15.151306 24,775 255 421 -4608
2022-08-19 14:58:39 GMT 41.082722 15.165315 25,200 263 428 -4992
2022-08-19 14:58:35 GMT 41.083603 15.176025 25,525 267 430 -5184
2022-08-19 14:58:29 GMT 41.083839 15.191595 26,000 274 437 -4864
2022-08-19 14:58:24 GMT 41.082954 15.204891 26,450 277 438 -5376
2022-08-19 14:58:20 GMT 41.081234 15.217126 26,900 286 443 -6720
2022-08-19 14:58:15 GMT 41.078579 15.229048 27,400 291 443 -7168
2022-08-19 14:58:09 GMT 41.074036 15.243958 28,100 298 445 -7168
2022-08-19 14:58:03 GMT 41.068382 15.258137 28,600 301 444 -7296
2022-08-19 14:58:00 GMT 41.064743 15.266357 29,175 302 443 -6656
2022-08-19 14:57:56 GMT 41.061447 15.273555 29,525 302 442 -6464
2022-08-19 14:57:53 GMT 41.058048 15.280984 29,825 302 442 -5568
2022-08-19 14:57:49 GMT 41.053207 15.291595 30,350 302 443 -4288
2022-08-19 14:57:42 GMT 41.046707 15.305786 30,575 302 445 -3264
2022-08-19 14:57:37 GMT 41.041580 15.316956 30,850 302 445 -3840
2022-08-19 14:57:33 GMT 41.035172 15.330872 31,225 302 444 -3840
2022-08-19 14:57:28 GMT 41.031143 15.339722 31,600 302 443 -3840
2022-08-19 14:57:22 GMT 41.025139 15.352894 31,800 301 441 -3712
2022-08-19 14:57:17 GMT 41.020065 15.364319 32,100 299 439 -3072
2022-08-19 14:57:11 GMT 41.013702 15.379333 32,400 295 439 -2048
2022-08-19 14:57:07 GMT 41.010521 15.387726 32,625 295 439 -2048
2022-08-19 14:57:01 GMT 41.005772 15.401958 32,700 291 439 -1536
2022-08-19 14:56:57 GMT 41.002651 15.413007 32,875 287 439 -1280
2022-08-19 14:56:52 GMT 40.999283 15.427612 32,950 283 440 -1216
2022-08-19 14:56:49 GMT 40.998001 15.434387 32,975 283 440 -1408
2022-08-19 14:56:45 GMT 40.996628 15.442810 33,075 280 439 -1984
2022-08-19 14:56:39 GMT 40.994087 15.463194 33,325 279 439 -2048
2022-08-19 14:56:34 GMT 40.992783 15.474060 33,475 280 435 -2112
2022-08-19 14:56:31 GMT 40.991821 15.481934 33,575 280 437 -2112
2022-08-19 14:56:28 GMT 40.990952 15.488831 33,650 280 436 -2112
2022-08-19 14:56:25 GMT 40.986637 15.522620 33,850 280 435 -2176
2022-08-19 14:56:15 GMT 40.984818 15.536865 34,375 280 431 -2176
2022-08-19 14:56:06 GMT 40.983444 15.547241 34,500 280 429 -2112
2022-08-19 14:56:02 GMT 40.982254 15.556519 34,525 280 429 -2112
2022-08-19 14:55:56 GMT 40.980057 15.572998 34,850 281 425 -2048
2022-08-19 14:55:51 GMT 40.978680 15.583482 34,875 281 424 -2048
2022-08-19 14:55:46 GMT 40.976257 15.601074 35,100 281 423 -2048
2022-08-19 14:55:42 GMT 40.975479 15.606628 35,175 281 422 -1984
2022-08-19 14:55:39 GMT 40.974426 15.614258 35,250 281 421 -1984
2022-08-19 14:55:35 GMT 40.972672 15.626117 35,425 281 420 -2048
2022-08-19 14:55:31 GMT 40.971313 15.635437 35,550 282 420 -2048
2022-08-19 14:55:24 GMT 40.968521 15.654053 35,775 282 420 -2048
2022-08-19 14:55:21 GMT 40.967411 15.661323 35,875 282 420 -2048
2022-08-19 14:55:18 GMT 40.966370 15.668152 36,075 282 419 -1984
2022-08-19 14:55:14 GMT 40.962990 15.689975 36,150 282 418 -2048
2022-08-19 14:55:04 GMT 40.959312 15.713945 36,575 282 416 -2112
2022-08-19 14:54:57 GMT 40.956192 15.734295 36,675 282 415 -2112
2022-08-19 14:54:53 GMT 40.956192 15.734295 36,825 282 413 -1984
2022-08-19 14:54:50 GMT 40.955612 15.737976 36,900 282 413 -1984
2022-08-19 14:54:47 GMT 40.954285 15.746887 37,000 282 411 -1856
2022-08-19 14:54:41 GMT 40.952042 15.761597 37,150 282 408 -1152
2022-08-19 14:54:37 GMT 40.950886 15.769189 37,200 282 407 -1152
2022-08-19 14:54:31 GMT 40.948326 15.786230 37,325 282 406 -1152
2022-08-19 14:54:23 GMT 40.945393 15.805706 37,450 282 407 -1024
2022-08-19 14:54:20 GMT 40.944351 15.812805 37,500 282 407 -1024
2022-08-19 14:54:17 GMT 40.943577 15.817940 37,525 281 408 -1024
2022-08-19 14:54:12 GMT 40.941437 15.832610 37,625 281 409 -960
2022-08-19 14:54:09 GMT 40.940689 15.837708 37,650 281 410 -960
2022-08-19 14:54:01 GMT 40.937485 15.859863 37,800 281 411 -896
2022-08-19 14:53:58 GMT 40.936798 15.864746 37,825 281 411 -832
2022-08-19 14:53:52 GMT 40.933384 15.888603 37,950 281 410 -768
2022-08-19 14:53:48 GMT 40.933384 15.888603 37,950 281 408 -704
2022-08-19 14:53:41 GMT 40.930573 15.908447 38,000 281 408 64
2022-08-19 14:53:38 GMT 40.929844 15.913634 38,000 281 409 64
2022-08-19 14:53:31 GMT 40.927052 15.933297 37,975 281 411 64
2022-08-19 14:53:28 GMT 40.926178 15.939453 37,975 281 412 0
2022-08-19 14:53:22 GMT 40.924213 15.953022 38,000 281 413 -64
2022-08-19 14:53:18 GMT 40.922813 15.962947 38,000 281 414 -384
2022-08-19 14:53:13 GMT 40.920639 15.978088 38,050 281 415 -832
2022-08-19 14:53:09 GMT 40.919044 15.989290 38,125 281 416 -1024
2022-08-19 14:53:05 GMT 40.917973 15.996780 38,175 281 417 -1024
2022-08-19 14:52:56 GMT 40.914734 16.019470 38,325 281 417 -1088
2022-08-19 14:52:47 GMT 40.911594 16.041225 38,450 282 418 -1152
2022-08-19 14:52:44 GMT 40.910526 16.048279 38,525 282 419 -1280
2022-08-19 14:52:35 GMT 40.906448 16.073547 38,750 285 421 -2048
2022-08-19 14:52:28 GMT 40.902706 16.091164 39,000 290 425 -2176
2022-08-19 14:52:23 GMT 40.900040 16.101196 39,125 290 426 -2176
2022-08-19 14:52:17 GMT 40.893036 16.122314 39,400 296 430 -2112
2022-08-19 14:52:14 GMT 40.893036 16.122314 39,425 298 432 -2176
2022-08-19 14:52:07 GMT 40.882969 16.145596 39,675 303 438 -1856
2022-08-19 14:52:04 GMT 40.882969 16.145596 39,725 304 440 -1728
2022-08-19 14:51:54 GMT 40.870724 16.169004 39,975 306 440 -704
2022-08-19 14:51:47 GMT 40.862064 16.185295 40,000 306 440 0
2022-08-19 14:51:43 GMT 40.859039 16.190975 40,000 306 440 0
2022-08-19 14:51:34 GMT 40.847542 16.212450 40,000 306 440 64
2022-08-19 14:51:26 GMT 40.838463 16.229553 40,000 306 440 0
2022-08-19 14:51:16 GMT 40.826546 16.251900 40,000 306 440 0
2022-08-19 14:51:05 GMT 40.813419 16.276369 40,000 306 440 0
2022-08-19 14:50:55 GMT 40.802200 16.297405 40,000 306 440 -64
2022-08-19 14:50:50 GMT 40.796951 16.307251 40,000 306 439 -64
2022-08-19 14:50:42 GMT 40.787842 16.324280 40,000 306 437 0
2022-08-19 14:50:35 GMT 40.778362 16.341913 40,000 306 437 0
2022-08-19 14:50:25 GMT 40.766258 16.364573 40,000 306 436 0
2022-08-19 14:50:14 GMT 40.754391 16.386732 40,000 306 436 0
2022-08-19 14:50:10 GMT 40.750198 16.394472 40,000 306 435 0
2022-08-19 14:50:03 GMT 40.741867 16.410078 40,000 306 434 0
2022-08-19 14:49:58 GMT 40.736511 16.420004 40,000 306 433 0
2022-08-19 14:49:54 GMT 40.731079 16.430115 40,000 306 433 0
2022-08-19 14:49:50 GMT 40.726131 16.439356 40,000 306 431 0
2022-08-19 14:49:47 GMT 40.723339 16.444536 40,000 306 431 0
2022-08-19 14:49:44 GMT 40.719086 16.452454 40,000 306 431 0
2022-08-19 14:49:40 GMT 40.714737 16.460571 40,000 306 431 0
2022-08-19 14:49:33 GMT 40.706909 16.475159 40,000 306 429 -64
2022-08-19 14:49:23 GMT 40.683151 16.519348 40,000 306 427 -64
2022-08-19 14:49:12 GMT 40.683151 16.519348 40,000 306 426 0
2022-08-19 14:49:03 GMT 40.672131 16.539791 40,000 306 425 64
2022-08-19 14:48:56 GMT 40.664867 16.553337 40,000 306 426 -64
2022-08-19 14:48:52 GMT 40.660309 16.561766 40,000 306 426 -64
2022-08-19 14:48:45 GMT 40.652580 16.576122 40,000 306 427 -64
2022-08-19 14:48:41 GMT 40.648575 16.583488 40,000 306 427 -128
2022-08-19 14:48:36 GMT 40.640991 16.597534 40,000 306 428 -128
2022-08-19 14:48:29 GMT 40.632839 16.612577 40,000 306 428 -64
2022-08-19 14:48:22 GMT 40.625381 16.626404 40,000 306 428 0
2022-08-19 14:48:14 GMT 40.617371 16.641235 40,000 306 428 64
2022-08-19 14:48:10 GMT 40.612682 16.649967 40,000 306 428 64
2022-08-19 14:48:03 GMT 40.604050 16.665894 40,000 306 429 0
2022-08-19 14:48:00 GMT 40.601185 16.671190 40,000 306 429 0
2022-08-19 14:47:57 GMT 40.597137 16.678589 40,000 306 429 0
2022-08-19 14:47:54 GMT 40.592789 16.686707 40,000 306 429 0
2022-08-19 14:47:48 GMT 40.585648 16.699829 40,000 306 429 64
2022-08-19 14:47:41 GMT 40.578094 16.713867 40,000 306 428 0
2022-08-19 14:47:33 GMT 40.566273 16.735674 40,000 306 428 -64
2022-08-19 14:47:30 GMT 40.566273 16.735674 40,000 306 428 -64
2022-08-19 14:47:22 GMT 40.557755 16.751341 40,000 306 428 0
2022-08-19 14:47:19 GMT 40.554356 16.757708 40,000 306 428 0
2022-08-19 14:47:12 GMT 40.546417 16.772278 40,000 306 427 0
2022-08-19 14:47:09 GMT 40.542068 16.780273 40,000 306 425 0
2022-08-19 14:47:00 GMT 40.531128 16.800415 40,000 306 424 0
2022-08-19 14:46:52 GMT 40.522606 16.816135 40,000 306 423 64
2022-08-19 14:46:49 GMT 40.519440 16.822002 40,000 306 423 64
2022-08-19 14:46:41 GMT 40.510483 16.838440 40,000 306 422 64
2022-08-19 14:46:37 GMT 40.506638 16.845520 40,000 306 421 0
2022-08-19 14:46:33 GMT 40.499935 16.857771 40,000 306 421 0
2022-08-19 14:46:26 GMT 40.492252 16.871880 40,000 306 421 -64
2022-08-19 14:46:19 GMT 40.484341 16.886423 40,000 306 420 -64
2022-08-19 14:46:08 GMT 40.473026 16.907146 40,000 306 421 -64
2022-08-19 14:45:58 GMT 40.462509 16.926453 40,000 306 421 -64
2022-08-19 14:45:53 GMT 40.456146 16.938110 40,000 306 422 -64
2022-08-19 14:45:50 GMT 40.451706 16.946224 40,000 306 422 -64
2022-08-19 14:45:47 GMT 40.449783 16.949768 40,000 306 422 0
2022-08-19 14:45:44 GMT 40.446259 16.956211 40,000 306 422 0
2022-08-19 14:45:35 GMT 40.435913 16.975220 40,000 306 424 64
2022-08-19 14:45:19 GMT 40.416885 17.010082 40,000 306 426 0
2022-08-19 14:45:16 GMT 40.413528 17.016174 40,000 306 426 0
2022-08-19 14:45:11 GMT 40.407669 17.026875 40,000 306 427 0
2022-08-19 14:45:04 GMT 40.400082 17.040731 40,000 306 427 -64
2022-08-19 14:44:57 GMT 40.390961 17.057434 40,000 306 430 -64
2022-08-19 14:44:49 GMT 40.383183 17.071630 40,000 306 432 -64
2022-08-19 14:44:44 GMT 40.377457 17.082031 40,000 306 433 0
2022-08-19 14:44:39 GMT 40.371597 17.092712 40,000 306 434 -64
2022-08-19 14:44:36 GMT 40.367844 17.099548 40,000 306 434 0
2022-08-19 14:44:33 GMT 40.364002 17.106586 40,000 306 434 64
2022-08-19 14:44:30 GMT 40.359879 17.114014 40,000 306 434 64
2022-08-19 14:44:25 GMT 40.354935 17.122986 40,000 306 434 64
2022-08-19 14:44:19 GMT 40.347801 17.136049 40,000 306 435 -64
2022-08-19 14:44:16 GMT 40.343216 17.144348 40,000 306 435 -64
2022-08-19 14:44:09 GMT 40.335480 17.158447 40,000 306 434 -64
2022-08-19 14:44:04 GMT 40.330078 17.168274 40,000 306 434 -64
2022-08-19 14:43:58 GMT 40.323486 17.180237 40,025 306 434 0
2022-08-19 14:43:54 GMT 40.318707 17.188984 40,000 306 433 0
2022-08-19 14:43:49 GMT 40.310978 17.203030 40,000 306 433 0
2022-08-19 14:43:45 GMT 40.307442 17.209396 40,000 306 433 0
2022-08-19 14:43:38 GMT 40.299179 17.224426 40,000 306 432 0
2022-08-19 14:43:34 GMT 40.294872 17.232306 40,000 306 432 0
2022-08-19 14:43:27 GMT 40.286911 17.246725 40,000 306 432 0
2022-08-19 14:43:22 GMT 40.281094 17.257275 40,000 306 432 -64
2022-08-19 14:43:17 GMT 40.275604 17.267212 40,000 306 432 -64
2022-08-19 14:43:12 GMT 40.269791 17.277832 40,000 306 432 -64
2022-08-19 14:43:08 GMT 40.263702 17.288818 40,000 306 432 -64
2022-08-19 14:43:03 GMT 40.258804 17.297729 40,000 306 433 -64
2022-08-19 14:42:57 GMT 40.251755 17.310486 40,000 306 434 0
2022-08-19 14:42:49 GMT 40.242371 17.327454 40,000 306 435 0
2022-08-19 14:42:46 GMT 40.238731 17.334055 40,000 306 435 0
2022-08-19 14:42:42 GMT 40.234131 17.342407 40,000 306 435 0
2022-08-19 14:42:37 GMT 40.227837 17.353655 40,000 306 435 0
2022-08-19 14:42:33 GMT 40.223137 17.362206 40,000 306 435 0
2022-08-19 14:42:30 GMT 40.220760 17.366451 40,000 306 435 0
2022-08-19 14:42:27 GMT 40.215363 17.376251 40,000 306 435 0
2022-08-19 14:42:20 GMT 40.208752 17.388174 40,000 306 435 0
2022-08-19 14:42:16 GMT 40.203461 17.397766 40,000 306 435 0
2022-08-19 14:42:13 GMT 40.199066 17.405590 40,000 306 434 0
2022-08-19 14:42:09 GMT 40.196041 17.411144 40,000 306 434 0
2022-08-19 14:42:05 GMT 40.190735 17.420715 40,000 306 434 0
2022-08-19 14:42:00 GMT 40.185104 17.430847 40,000 306 433 -64
2022-08-19 14:41:55 GMT 40.179016 17.441895 40,000 306 433 0
2022-08-19 14:41:50 GMT 40.172768 17.453093 40,000 306 432 0
2022-08-19 14:41:45 GMT 40.166565 17.464294 40,000 306 431 0
2022-08-19 14:41:37 GMT 40.157455 17.480774 40,000 306 431 -64
2022-08-19 14:41:34 GMT 40.154892 17.485413 40,000 306 431 -64
2022-08-19 14:41:31 GMT 40.147156 17.499268 40,000 306 432 -64
2022-08-19 14:41:24 GMT 40.142899 17.506897 40,000 306 432 -64
2022-08-19 14:41:18 GMT 40.135059 17.521009 40,000 306 432 -64
2022-08-19 14:41:15 GMT 40.131565 17.527313 40,000 306 432 -64
2022-08-19 14:41:08 GMT 40.124027 17.540859 40,000 306 432 0
2022-08-19 14:41:05 GMT 40.118858 17.550097 40,000 306 432 0
2022-08-19 14:41:00 GMT 40.114670 17.557713 40,000 306 433 0
2022-08-19 14:40:57 GMT 40.111221 17.563843 40,000 306 433 0
2022-08-19 14:40:54 GMT 40.107128 17.571259 40,000 306 433 64
2022-08-19 14:40:51 GMT 40.103123 17.578438 40,000 306 433 0
2022-08-19 14:40:48 GMT 40.099819 17.584305 40,000 306 433 0
2022-08-19 14:40:44 GMT 40.095348 17.592358 40,000 306 433 0
2022-08-19 14:40:39 GMT 40.089844 17.602295 40,000 306 433 -64
2022-08-19 14:40:36 GMT 40.085815 17.609497 40,000 306 433 -64
2022-08-19 14:40:33 GMT 40.082874 17.614767 40,000 306 433 -64
2022-08-19 14:40:30 GMT 40.078403 17.622757 40,000 306 433 -64
2022-08-19 14:40:24 GMT 40.071213 17.635681 40,000 306 433 0
2022-08-19 14:40:19 GMT 40.066162 17.644730 40,000 307 433 0
2022-08-19 14:40:16 GMT 40.062622 17.651033 40,000 307 433 0
2022-08-19 14:40:13 GMT 40.058620 17.658213 40,000 307 433 0
2022-08-19 14:40:03 GMT 40.046951 17.679016 40,000 307 431 0
2022-08-19 14:39:55 GMT 40.037796 17.695435 40,000 307 431 0
2022-08-19 14:39:51 GMT 40.033356 17.703369 40,000 307 430 0
2022-08-19 14:39:45 GMT 40.025753 17.717014 40,000 307 430 -64
2022-08-19 14:39:42 GMT 40.021912 17.723877 40,000 307 429 -64
2022-08-19 14:39:32 GMT 40.010696 17.743896 40,000 307 428 0
2022-08-19 14:39:22 GMT 39.999172 17.764519 40,000 307 427 0
2022-08-19 14:39:14 GMT 39.989777 17.781311 40,000 307 426 0
2022-08-19 14:39:11 GMT 39.986835 17.786491 40,000 307 426 0
2022-08-19 14:39:02 GMT 39.975246 17.807152 40,000 307 425 -64
2022-08-19 14:38:54 GMT 39.967026 17.821838 40,000 307 425 0
2022-08-19 14:38:51 GMT 39.963421 17.828251 40,000 307 424 0
2022-08-19 14:38:40 GMT 39.950592 17.851135 40,000 307 425 64
2022-08-19 14:38:36 GMT 39.946152 17.858948 40,000 307 425 0
2022-08-19 14:38:30 GMT 39.939240 17.871338 40,000 307 425 0
2022-08-19 14:38:21 GMT 39.927528 17.892235 40,000 307 425 0
2022-08-19 14:38:11 GMT 39.916821 17.911255 40,000 307 433 0
2022-08-19 14:38:08 GMT 39.913651 17.916792 40,000 307 427 -64
2022-08-19 14:37:59 GMT 39.902710 17.936316 40,000 307 428 -64
2022-08-19 14:37:50 GMT 39.892136 17.955065 40,000 307 431 0
2022-08-19 14:37:47 GMT 39.889526 17.959661 40,000 307 431 0
2022-08-19 14:37:44 GMT 39.885910 17.966125 40,000 307 432 -64
2022-08-19 14:37:39 GMT 39.879299 17.977844 40,000 307 432 0
2022-08-19 14:37:34 GMT 39.873734 17.987663 40,000 307 432 0
2022-08-19 14:37:29 GMT 39.867710 17.998352 40,000 307 432 0
2022-08-19 14:37:24 GMT 39.860504 18.011129 40,000 307 432 0
2022-08-19 14:37:19 GMT 39.855373 18.020142 40,000 307 432 0
2022-08-19 14:37:15 GMT 39.851257 18.027491 40,000 307 433 64
2022-08-19 14:37:08 GMT 39.842339 18.043152 40,000 307 433 64
2022-08-19 14:37:00 GMT 39.833122 18.059509 40,000 307 433 -64
2022-08-19 14:36:56 GMT 39.828838 18.067078 40,000 307 433 -64
2022-08-19 14:36:49 GMT 39.820271 18.082153 40,000 307 433 -64
2022-08-19 14:36:46 GMT 39.816833 18.088213 40,000 307 433 0
2022-08-19 14:36:40 GMT 39.808319 18.103319 40,000 307 433 0
2022-08-19 14:36:36 GMT 39.805096 18.108948 40,000 307 432 0
2022-08-19 14:36:26 GMT 39.793625 18.129232 40,000 307 432 -64
2022-08-19 14:36:15 GMT 39.780579 18.152281 40,000 307 432 -64
2022-08-19 14:36:08 GMT 39.771717 18.167908 40,000 307 432 0
2022-08-19 14:36:05 GMT 39.768036 18.174372 40,000 307 432 0
2022-08-19 14:35:56 GMT 39.757828 18.192345 40,000 307 432 64
2022-08-19 14:35:46 GMT 39.745182 18.214600 40,000 307 432 -64
2022-08-19 14:35:38 GMT 39.735809 18.231094 40,000 307 432 0
2022-08-19 14:35:35 GMT 39.732971 18.236111 40,000 307 432 0
2022-08-19 14:35:25 GMT 39.720428 18.258204 40,000 307 432 0
2022-08-19 14:35:15 GMT 39.708527 18.279041 40,000 307 432 -64
2022-08-19 14:35:07 GMT 39.699654 18.294678 40,000 307 432 -64
2022-08-19 14:35:04 GMT 39.695984 18.301132 40,000 307 432 -64
2022-08-19 14:34:54 GMT 39.683624 18.322746 40,000 307 432 0
2022-08-19 14:34:46 GMT 39.674236 18.339172 40,025 307 431 0
2022-08-19 14:34:43 GMT 39.671165 18.344543 40,000 307 431 0
2022-08-19 14:34:33 GMT 39.658550 18.366577 40,000 307 431 64
2022-08-19 14:34:26 GMT 39.650730 18.380310 40,000 307 431 0
2022-08-19 14:34:22 GMT 39.638161 18.402283 40,000 307 430 -64
2022-08-19 14:34:15 GMT 39.638161 18.402283 40,000 307 430 0
2022-08-19 14:34:12 GMT 39.633923 18.409729 40,000 307 430 0
2022-08-19 14:34:05 GMT 39.626102 18.423401 40,000 307 429 -64
2022-08-19 14:34:01 GMT 39.619957 18.434143 40,000 307 429 -64
2022-08-19 14:33:52 GMT 39.609009 18.453270 40,000 307 428 0
2022-08-19 14:33:49 GMT 39.606400 18.457808 40,000 307 426 0
2022-08-19 14:33:45 GMT 39.602268 18.464966 40,000 307 426 0
2022-08-19 14:33:40 GMT 39.589508 18.487303 40,000 307 426 0
2022-08-19 14:33:34 GMT 39.589508 18.487303 40,000 307 426 0
2022-08-19 14:33:30 GMT 39.584206 18.496521 40,000 307 425 0
2022-08-19 14:33:22 GMT 39.575779 18.511230 40,000 307 425 0
2022-08-19 14:33:18 GMT 39.569550 18.522055 40,000 307 424 0
2022-08-19 14:33:13 GMT 39.563965 18.531845 40,000 307 424 0
2022-08-19 14:33:10 GMT 39.553894 18.549339 40,000 307 424 -64
2022-08-19 14:33:04 GMT 39.553894 18.549339 40,000 307 424 -64
2022-08-19 14:32:58 GMT 39.546661 18.561998 40,000 307 424 -64
2022-08-19 14:32:51 GMT 39.538696 18.575851 40,000 307 425 -64
2022-08-19 14:32:46 GMT 39.532837 18.586000 40,000 307 426 0
2022-08-19 14:32:42 GMT 39.528854 18.592987 40,000 307 426 0
2022-08-19 14:32:38 GMT 39.524139 18.601168 40,000 307 427 -64
2022-08-19 14:32:33 GMT 39.517635 18.612427 40,000 307 429 0
2022-08-19 14:32:28 GMT 39.511597 18.622902 40,000 307 430 -64
2022-08-19 14:32:21 GMT 39.503391 18.637085 40,000 307 431 0
2022-08-19 14:32:17 GMT 39.498734 18.645172 40,000 307 432 0
2022-08-19 14:32:11 GMT 39.491241 18.658203 40,000 307 432 0
2022-08-19 14:32:05 GMT 39.485004 18.668945 40,000 307 433 0
2022-08-19 14:32:02 GMT 39.481419 18.675171 40,000 307 433 0
2022-08-19 14:31:57 GMT 39.474716 18.686768 40,000 307 433 0
2022-08-19 14:31:50 GMT 39.465729 18.702374 40,000 307 434 0
2022-08-19 14:31:46 GMT 39.462238 18.708374 40,000 307 434 0
2022-08-19 14:31:36 GMT 39.449753 18.729958 40,000 307 434 0
2022-08-19 14:31:31 GMT 39.443619 18.740526 40,000 307 434 -64
2022-08-19 14:31:22 GMT 39.432312 18.760111 40,000 307 435 0
2022-08-19 14:31:15 GMT 39.424206 18.773987 40,000 307 435 0
2022-08-19 14:31:10 GMT 39.417343 18.785845 40,000 307 436 0
2022-08-19 14:31:05 GMT 39.411915 18.795227 40,000 307 436 0
2022-08-19 14:30:59 GMT 39.405121 18.806885 40,000 307 437 0
2022-08-19 14:30:54 GMT 39.399067 18.817322 40,000 307 437 0
2022-08-19 14:30:49 GMT 39.392551 18.828552 40,000 307 437 0
2022-08-19 14:30:44 GMT 39.386963 18.838135 40,000 307 437 -64
2022-08-19 14:30:41 GMT 39.382690 18.845434 40,000 307 437 -64
2022-08-19 14:30:38 GMT 39.380264 18.849613 40,000 307 437 -64
2022-08-19 14:30:33 GMT 39.373947 18.860479 40,000 307 437 -64
2022-08-19 14:30:30 GMT 39.370159 18.866943 40,000 307 438 0
2022-08-19 14:30:23 GMT 39.361267 18.882154 40,000 307 438 0
2022-08-19 14:30:18 GMT 39.355541 18.892029 40,000 307 438 0
2022-08-19 14:30:13 GMT 39.348862 18.903530 40,000 307 438 0
2022-08-19 14:30:08 GMT 39.342545 18.914396 40,000 307 438 0
2022-08-19 14:30:01 GMT 39.335197 18.927185 40,000 307 438 0
2022-08-19 14:29:57 GMT 39.330002 18.936131 40,000 307 436 0
2022-08-19 14:29:49 GMT 39.319885 18.953745 40,000 307 436 0
2022-08-19 14:29:40 GMT 39.309860 18.971298 40,000 307 435 0
2022-08-19 14:29:37 GMT 39.305637 18.978577 40,000 307 435 0
2022-08-19 14:29:29 GMT 39.295807 18.995302 40,000 308 436 0
2022-08-19 14:29:21 GMT 39.285526 19.011780 40,000 311 437 0
2022-08-19 14:29:18 GMT 39.282410 19.016541 40,000 311 437 0
2022-08-19 14:29:10 GMT 39.272213 19.032104 40,000 311 437 0
2022-08-19 14:29:05 GMT 39.265694 19.042053 40,000 311 437 0
2022-08-19 14:28:59 GMT 39.257362 19.054810 40,000 311 437 0
2022-08-19 14:28:56 GMT 39.253220 19.061157 40,000 311 436 0
2022-08-19 14:28:49 GMT 39.244606 19.074219 40,000 311 435 0
2022-08-19 14:28:45 GMT 39.239441 19.082153 40,000 311 435 0
2022-08-19 14:28:39 GMT 39.231667 19.093994 40,000 311 434 0
2022-08-19 14:28:36 GMT 39.227242 19.100708 40,000 311 434 0
2022-08-19 14:28:29 GMT 39.218079 19.114717 40,000 311 432 0
2022-08-19 14:28:25 GMT 39.211624 19.124571 40,000 311 432 0
2022-08-19 14:28:18 GMT 39.204163 19.135975 40,000 311 432 0
2022-08-19 14:28:15 GMT 39.200775 19.141050 40,000 311 432 0
2022-08-19 14:28:08 GMT 39.191399 19.155396 40,000 311 432 -64
2022-08-19 14:28:05 GMT 39.187408 19.161470 40,000 311 432 -64
2022-08-19 14:27:57 GMT 39.176922 19.177368 40,000 311 433 -64
2022-08-19 14:27:53 GMT 39.171890 19.185055 40,000 311 433 -64
2022-08-19 14:27:47 GMT 39.164337 19.196459 40,000 311 434 -64
2022-08-19 14:27:44 GMT 39.159279 19.204163 40,000 311 435 -64
2022-08-19 14:27:40 GMT 39.154221 19.211864 40,000 311 436 -64
2022-08-19 14:27:36 GMT 39.150433 19.217651 40,000 311 437 -64
2022-08-19 14:27:33 GMT 39.146118 19.224163 40,025 311 437 -64
2022-08-19 14:27:29 GMT 39.139446 19.234253 40,025 311 437 0
2022-08-19 14:27:25 GMT 39.136185 19.239210 40,025 311 437 0
2022-08-19 14:27:22 GMT 39.131744 19.245956 40,025 311 436 64
2022-08-19 14:27:17 GMT 39.125107 19.256042 40,000 311 436 128
2022-08-19 14:27:13 GMT 39.120453 19.263184 40,000 311 436 192
2022-08-19 14:27:08 GMT 39.113934 19.273010 39,975 311 435 320
2022-08-19 14:27:05 GMT 39.110023 19.278931 39,950 311 435 320
2022-08-19 14:27:02 GMT 39.103638 19.288589 39,950 311 435 320
2022-08-19 14:26:58 GMT 39.100899 19.292786 39,925 311 435 320
2022-08-19 14:26:55 GMT 39.096710 19.299072 39,925 311 435 320
2022-08-19 14:26:52 GMT 39.092697 19.305187 39,900 311 435 320
2022-08-19 14:26:45 GMT 39.083313 19.319399 39,850 311 435 448
2022-08-19 14:26:42 GMT 39.079422 19.325310 39,825 311 435 448
2022-08-19 14:26:38 GMT 39.074085 19.333374 39,800 311 435 384
2022-08-19 14:26:35 GMT 39.070038 19.339460 39,775 311 435 320
2022-08-19 14:26:32 GMT 39.066265 19.345215 39,775 311 435 192
2022-08-19 14:26:27 GMT 39.060261 19.354248 39,750 311 435 128
2022-08-19 14:26:23 GMT 39.053741 19.364075 39,750 311 434 128
2022-08-19 14:26:17 GMT 39.047226 19.373901 39,725 311 434 192
2022-08-19 14:26:12 GMT 39.040100 19.384720 39,725 311 434 192
2022-08-19 14:26:07 GMT 39.033726 19.394287 39,700 311 433 192
2022-08-19 14:26:02 GMT 39.027374 19.403887 39,700 311 432 64
2022-08-19 14:25:57 GMT 39.020645 19.414097 39,675 311 432 128
2022-08-19 14:25:52 GMT 39.015198 19.422276 39,650 311 432 192
2022-08-19 14:25:47 GMT 39.007332 19.434204 39,650 311 432 192
2022-08-19 14:25:42 GMT 39.001884 19.442383 39,625 311 431 128
2022-08-19 14:25:37 GMT 38.994389 19.453674 39,625 311 431 192
2022-08-19 14:25:32 GMT 38.988831 19.462042 39,600 311 430 320
2022-08-19 14:25:26 GMT 38.981369 19.473326 39,575 311 430 384
2022-08-19 14:25:20 GMT 38.972855 19.486164 39,525 311 430 512
2022-08-19 14:25:17 GMT 38.968231 19.493149 39,500 311 430 576
2022-08-19 14:25:11 GMT 38.962006 19.502464 39,425 311 431 640
2022-08-19 14:25:06 GMT 38.955048 19.512974 39,375 311 432 768
2022-08-19 14:25:01 GMT 38.948318 19.523123 39,250 311 432 960
2022-08-19 14:24:56 GMT 38.941692 19.533081 39,250 311 433 896
2022-08-19 14:24:52 GMT 38.936756 19.540466 39,175 311 434 832
2022-08-19 14:24:49 GMT 38.933594 19.545166 39,150 311 434 640
2022-08-19 14:24:45 GMT 38.928658 19.552612 39,125 311 434 640
2022-08-19 14:24:40 GMT 38.920944 19.564201 39,025 311 435 576
2022-08-19 14:24:35 GMT 38.915176 19.572800 39,025 311 435 448
2022-08-19 14:24:29 GMT 38.907623 19.584206 38,975 311 436 448
2022-08-19 14:24:26 GMT 38.901749 19.593018 38,950 311 436 320
2022-08-19 14:24:19 GMT 38.894161 19.604431 38,925 311 434 128
2022-08-19 14:24:14 GMT 38.887363 19.614624 38,925 311 434 128
2022-08-19 14:24:11 GMT 38.883175 19.620850 38,900 311 434 320
2022-08-19 14:24:08 GMT 38.880203 19.625343 38,875 311 434 320
2022-08-19 14:24:05 GMT 38.874710 19.633583 38,875 311 434 448
2022-08-19 14:23:58 GMT 38.866653 19.645643 38,800 311 434 576
2022-08-19 14:23:55 GMT 38.861938 19.652691 38,775 311 434 640
2022-08-19 14:23:48 GMT 38.853333 19.665586 38,700 311 434 576
2022-08-19 14:23:44 GMT 38.848114 19.673409 38,675 311 434 576
2022-08-19 14:23:37 GMT 38.839649 19.686157 38,600 311 435 576
2022-08-19 14:23:34 GMT 38.835178 19.692749 38,575 311 435 576
2022-08-19 14:23:30 GMT 38.829407 19.701416 38,525 311 435 384
2022-08-19 14:23:27 GMT 38.826141 19.706308 38,525 311 435 384
2022-08-19 14:23:20 GMT 38.816757 19.720341 38,475 311 435 384
2022-08-19 14:23:16 GMT 38.811768 19.727802 38,450 311 434 448
2022-08-19 14:23:13 GMT 38.807434 19.734253 38,400 311 434 576
2022-08-19 14:23:06 GMT 38.798676 19.747328 38,350 311 435 640
2022-08-19 14:22:59 GMT 38.789795 19.760584 38,200 311 435 640
2022-08-19 14:22:55 GMT 38.784439 19.768616 38,225 311 435 640
2022-08-19 14:22:49 GMT 38.776428 19.780525 38,175 311 435 640
2022-08-19 14:22:43 GMT 38.768425 19.792480 38,100 311 436 704
2022-08-19 14:22:38 GMT 38.762421 19.801453 38,050 311 436 704
2022-08-19 14:22:33 GMT 38.755062 19.812378 38,000 311 436 704
2022-08-19 14:22:28 GMT 38.749290 19.821045 37,950 311 436 640
2022-08-19 14:22:22 GMT 38.740997 19.833366 37,875 311 436 576
2022-08-19 14:22:18 GMT 38.735886 19.841003 37,775 311 436 512
2022-08-19 14:22:12 GMT 38.727859 19.852951 37,800 311 436 512
2022-08-19 14:22:08 GMT 38.722198 19.861328 37,775 311 436 448
2022-08-19 14:22:03 GMT 38.714844 19.872314 37,725 311 436 448
2022-08-19 14:21:57 GMT 38.708633 19.881493 37,700 311 436 448
2022-08-19 14:21:52 GMT 38.701435 19.892212 37,650 311 436 448
2022-08-19 14:21:47 GMT 38.695107 19.901611 37,625 311 436 512
2022-08-19 14:21:42 GMT 38.687897 19.912361 37,575 311 436 448
2022-08-19 14:21:37 GMT 38.681580 19.921736 37,475 311 435 384
2022-08-19 14:21:31 GMT 38.674389 19.932434 37,525 311 435 384
2022-08-19 14:21:27 GMT 38.668716 19.940783 37,500 311 434 512
2022-08-19 14:21:22 GMT 38.660980 19.952271 37,425 311 433 576
2022-08-19 14:21:17 GMT 38.655209 19.960815 37,400 311 433 640
2022-08-19 14:21:10 GMT 38.646698 19.973442 37,325 311 433 640
2022-08-19 14:21:06 GMT 38.641850 19.980652 37,300 311 434 576
2022-08-19 14:21:00 GMT 38.633747 19.992676 37,225 311 433 512
2022-08-19 14:20:56 GMT 38.627838 20.001446 37,175 311 433 704
2022-08-19 14:20:51 GMT 38.620899 20.011719 37,175 311 433 448
2022-08-19 14:20:44 GMT 38.612007 20.024902 37,100 311 433 512
2022-08-19 14:20:40 GMT 38.607540 20.031494 37,075 311 433 640
2022-08-19 14:20:34 GMT 38.599548 20.043303 37,025 311 433 704
2022-08-19 14:20:31 GMT 38.593948 20.051575 36,975 311 433 832
2022-08-19 14:20:25 GMT 38.587784 20.060677 36,900 311 433 768
2022-08-19 14:20:19 GMT 38.580185 20.071901 36,825 311 433 704
2022-08-19 14:20:16 GMT 38.574814 20.079895 36,800 311 434 640
2022-08-19 14:20:09 GMT 38.567093 20.091307 36,750 311 433 512
2022-08-19 14:20:05 GMT 38.561050 20.100204 36,700 311 433 512
2022-08-19 14:19:59 GMT 38.553177 20.111847 36,650 311 433 512
2022-08-19 14:19:55 GMT 38.547684 20.119967 36,625 311 433 512
2022-08-19 14:19:48 GMT 38.539307 20.132326 36,550 311 433 512
2022-08-19 14:19:45 GMT 38.534733 20.139038 36,525 311 433 512
2022-08-19 14:19:38 GMT 38.525986 20.151972 36,475 311 432 704
2022-08-19 14:19:34 GMT 38.520626 20.159912 36,425 311 433 832
2022-08-19 14:19:27 GMT 38.511734 20.173035 36,325 311 433 896
2022-08-19 14:19:23 GMT 38.506622 20.180511 36,275 311 433 896
2022-08-19 14:19:17 GMT 38.498749 20.192156 36,175 311 434 960
2022-08-19 14:19:14 GMT 38.494263 20.198723 36,150 311 434 960
2022-08-19 14:19:07 GMT 38.484787 20.212635 36,025 311 436 832
2022-08-19 14:19:04 GMT 38.480965 20.218262 36,000 311 436 832
2022-08-19 14:18:56 GMT 38.471100 20.232817 35,900 311 436 832
2022-08-19 14:18:53 GMT 38.467117 20.238667 35,875 311 436 768
2022-08-19 14:18:46 GMT 38.457367 20.252996 35,775 311 436 704
2022-08-19 14:18:43 GMT 38.453659 20.258492 39,000 311 436 704
2022-08-19 14:18:35 GMT 38.443489 20.273376 35,650 311 436 704
2022-08-19 14:18:32 GMT 38.439651 20.279030 35,625 311 436 704
2022-08-19 14:18:25 GMT 38.430130 20.293001 35,550 311 436 640
2022-08-19 14:18:22 GMT 38.426033 20.299011 35,500 311 436 704
2022-08-19 14:18:16 GMT 38.417725 20.311213 35,425 311 436 768
2022-08-19 14:18:12 GMT 38.412689 20.318558 35,400 311 436 832
2022-08-19 14:18:07 GMT 38.404770 20.330200 35,325 311 436 640
2022-08-19 14:18:02 GMT 38.399231 20.338383 35,275 311 436 512
2022-08-19 14:17:54 GMT 38.388790 20.353666 35,225 311 435 512
2022-08-19 14:17:51 GMT 38.385498 20.358484 35,200 311 435 512
2022-08-19 14:17:41 GMT 38.371891 20.378386 35,125 311 434 640
2022-08-19 14:17:35 GMT 38.363892 20.390158 35,050 311 434 896
2022-08-19 14:17:31 GMT 38.359131 20.397112 35,000 311 434 1024
2022-08-19 14:17:21 GMT 38.345673 20.416746 34,825 312 435 1088
2022-08-19 14:17:11 GMT 38.332169 20.436499 34,625 312 437 1216
2022-08-19 14:17:01 GMT 38.318218 20.456902 34,375 312 438 1152
2022-08-19 14:16:57 GMT 38.313656 20.463530 34,375 312 438 1152
2022-08-19 14:16:54 GMT 38.308731 20.470743 34,300 312 440 960
2022-08-19 14:16:50 GMT 38.304703 20.476587 34,250 312 440 896
2022-08-19 14:16:43 GMT 38.294708 20.491234 34,175 311 440 704
2022-08-19 14:16:40 GMT 38.291061 20.496456 34,125 312 440 512
2022-08-19 14:16:31 GMT 38.274410 20.520849 34,050 312 438 384
2022-08-19 14:16:20 GMT 38.264309 20.535538 34,000 312 437 640
2022-08-19 14:16:10 GMT 38.250870 20.555069 33,900 312 435 832
2022-08-19 14:16:04 GMT 38.243179 20.566290 33,800 312 436 832
2022-08-19 14:15:59 GMT 38.235634 20.577272 33,725 312 436 832
2022-08-19 14:15:50 GMT 38.223816 20.594456 33,600 312 436 960
2022-08-19 14:15:40 GMT 38.211472 20.612383 33,475 312 436 768
2022-08-19 14:15:34 GMT 38.203125 20.624552 33,400 312 436 704
2022-08-19 14:15:31 GMT 38.198486 20.631310 33,350 312 436 768
2022-08-19 14:15:27 GMT 38.193832 20.638050 33,150 312 436 1216
2022-08-19 14:15:24 GMT 38.189301 20.644596 33,250 312 436 1152
2022-08-19 14:15:19 GMT 38.182564 20.654415 33,150 312 436 1216
2022-08-19 14:15:16 GMT 38.179230 20.659206 33,100 312 436 1216
2022-08-19 14:15:11 GMT 38.172043 20.669666 32,975 312 438 1024
2022-08-19 14:15:08 GMT 38.168972 20.674120 32,975 312 438 1024
2022-08-19 14:15:01 GMT 38.157520 20.690720 32,850 312 438 832
2022-08-19 14:14:50 GMT 38.144718 20.709288 32,725 312 437 768
2022-08-19 14:14:46 GMT 38.139267 20.717176 32,675 312 436 896
2022-08-19 14:14:40 GMT 38.131172 20.728931 32,575 312 436 960
2022-08-19 14:14:36 GMT 38.111992 20.756697 32,475 312 437 1088
2022-08-19 14:14:29 GMT 38.111992 20.756697 32,325 312 438 1472
2022-08-19 14:14:22 GMT 38.107040 20.763868 32,250 312 438 1408
2022-08-19 14:14:19 GMT 38.103836 20.768484 32,175 312 439 1600
2022-08-19 14:14:16 GMT 38.099701 20.774490 32,100 312 440 1536
2022-08-19 14:14:10 GMT 38.085297 20.795307 31,900 312 441 1408
2022-08-19 14:14:06 GMT 38.085297 20.795307 31,875 312 442 1344
2022-08-19 14:14:00 GMT 38.076519 20.807926 31,725 312 443 1216
2022-08-19 14:13:56 GMT 38.071518 20.815176 31,650 312 444 1088
2022-08-19 14:13:49 GMT 38.062740 20.827869 31,550 312 444 1088
2022-08-19 14:13:45 GMT 38.057850 20.834913 31,475 312 444 1024
2022-08-19 14:13:38 GMT 38.046066 20.851875 31,350 312 444 1024
2022-08-19 14:13:32 GMT 38.040253 20.860291 31,250 312 444 1088
2022-08-19 14:13:28 GMT 38.034527 20.868471 31,150 312 444 1024
2022-08-19 14:13:25 GMT 38.029686 20.875517 31,125 312 444 1024
2022-08-19 14:13:19 GMT 38.021393 20.887465 31,000 312 444 768
2022-08-19 14:13:15 GMT 38.016094 20.895100 30,975 312 444 832
2022-08-19 14:13:08 GMT 38.007713 20.907162 30,900 312 444 832
2022-08-19 14:13:04 GMT 38.002316 20.914984 30,850 312 442 768
2022-08-19 14:12:58 GMT 37.992306 20.929373 30,750 312 442 896
2022-08-19 14:12:52 GMT 37.985962 20.938540 30,700 312 442 1152
2022-08-19 14:12:48 GMT 37.980389 20.946508 30,625 312 442 1216
2022-08-19 14:12:43 GMT 37.974060 20.955603 30,525 312 442 1280
2022-08-19 14:12:37 GMT 37.965958 20.967291 30,400 312 442 1408
2022-08-19 14:12:34 GMT 37.960651 20.974871 30,300 312 443 1472
2022-08-19 14:12:28 GMT 37.953060 20.985798 30,150 312 444 1728
2022-08-19 14:12:23 GMT 37.946411 20.995399 30,025 312 446 1856
2022-08-19 14:12:17 GMT 37.938629 21.006577 29,850 312 447 1792
2022-08-19 14:12:13 GMT 37.932175 21.015795 29,725 312 449 1472
2022-08-19 14:12:06 GMT 37.923660 21.028008 29,525 312 450 1024
2022-08-19 14:12:03 GMT 37.919079 21.034519 29,525 312 450 1088
2022-08-19 14:11:55 GMT 37.908092 21.050343 29,400 312 449 1024
2022-08-19 14:11:52 GMT 37.896652 21.066692 29,225 312 449 1152
2022-08-19 14:11:48 GMT 37.896652 21.066692 29,250 312 449 1152
2022-08-19 14:11:43 GMT 37.890884 21.074991 29,175 312 449 1152
2022-08-19 14:11:36 GMT 37.882324 21.087206 29,050 312 450 1088
2022-08-19 14:11:32 GMT 37.876831 21.095095 28,975 312 449 1152
2022-08-19 14:11:26 GMT 37.864471 21.112801 28,825 312 449 1216
2022-08-19 14:11:22 GMT 37.862549 21.115606 28,800 312 449 1280
2022-08-19 14:11:17 GMT 37.855133 21.126183 28,675 312 449 1280
2022-08-19 14:11:11 GMT 37.847717 21.136820 28,575 312 449 1344
2022-08-19 14:11:05 GMT 37.839336 21.148802 28,450 312 448 1472
2022-08-19 14:11:02 GMT 37.834808 21.155285 28,250 312 448 1856
2022-08-19 14:10:56 GMT 37.827232 21.166058 28,225 312 448 1920
2022-08-19 14:10:51 GMT 37.819702 21.176849 28,050 312 449 1856
2022-08-19 14:10:46 GMT 37.813499 21.185701 27,925 312 449 1728
2022-08-19 14:10:41 GMT 37.806198 21.196133 27,775 312 449 1408
2022-08-19 14:10:35 GMT 37.797638 21.208288 27,650 312 449 1152
2022-08-19 14:10:31 GMT 37.792271 21.215973 27,600 312 449 960
2022-08-19 14:10:26 GMT 37.784821 21.226542 27,500 312 447 960
2022-08-19 14:10:21 GMT 37.778259 21.235914 27,425 312 446 1152
2022-08-19 14:10:10 GMT 37.764061 21.256157 27,250 312 444 1088
2022-08-19 14:10:06 GMT 37.757401 21.265675 27,150 312 442 1088
2022-08-19 14:09:58 GMT 37.747330 21.279991 27,050 312 442 1152
2022-08-19 14:09:55 GMT 37.742752 21.286537 26,975 312 440 1152
2022-08-19 14:09:50 GMT 37.736526 21.295361 26,850 312 439 1152
2022-08-19 14:09:46 GMT 37.729656 21.305178 26,775 312 439 1344
2022-08-19 14:09:40 GMT 37.722748 21.314938 26,675 312 439 1472
2022-08-19 14:09:35 GMT 37.715645 21.325121 26,550 312 439 1408
2022-08-19 14:09:28 GMT 37.703110 21.342871 26,375 312 438 1280
2022-08-19 14:09:23 GMT 37.700409 21.346727 26,325 312 438 1280
2022-08-19 14:09:19 GMT 37.694138 21.355690 26,225 312 437 1280
2022-08-19 14:09:15 GMT 37.688740 21.363274 26,150 312 437 1280
2022-08-19 14:09:09 GMT 37.681366 21.373783 26,050 312 437 1216
2022-08-19 14:09:05 GMT 37.675331 21.382320 25,950 312 435 1088
2022-08-19 14:09:01 GMT 37.666901 21.394297 25,850 312 434 1024
2022-08-19 14:08:58 GMT 37.664906 21.397127 25,825 312 434 1088
2022-08-19 14:08:53 GMT 37.659988 21.404114 25,775 312 434 1088
2022-08-19 14:08:49 GMT 37.654011 21.412651 25,675 312 432 1088
2022-08-19 14:08:45 GMT 37.647865 21.421310 25,600 312 432 1152
2022-08-19 14:08:37 GMT 37.638836 21.434088 25,425 312 431 1152
2022-08-19 14:08:34 GMT 37.634216 21.440697 25,425 312 431 1216
2022-08-19 14:08:28 GMT 37.626801 21.451157 25,250 312 429 1152
2022-08-19 14:08:24 GMT 37.621262 21.459045 25,250 312 429 1152
2022-08-19 14:08:18 GMT 37.612949 21.470808 25,125 312 429 1088
2022-08-19 14:08:14 GMT 37.607925 21.477913 25,050 312 429 1152
2022-08-19 14:08:07 GMT 37.599216 21.490213 24,925 312 427 1216
2022-08-19 14:08:04 GMT 37.594749 21.496542 24,875 312 427 1280
2022-08-19 14:07:56 GMT 37.584366 21.511230 24,700 312 427 1280
2022-08-19 14:07:53 GMT 37.580318 21.516962 24,650 312 427 1280
2022-08-19 14:07:47 GMT 37.572453 21.528069 24,475 312 425 1088
2022-08-19 14:07:44 GMT 37.567566 21.534956 24,475 312 425 1088
2022-08-19 14:07:36 GMT 37.558578 21.547712 24,350 312 424 1152
2022-08-19 14:07:32 GMT 37.549805 21.560026 24,225 312 423 1216
2022-08-19 14:07:26 GMT 37.545914 21.565578 24,175 312 422 1152
2022-08-19 14:07:21 GMT 37.539307 21.574940 24,075 312 422 1152
2022-08-19 14:07:17 GMT 37.533188 21.583576 24,000 312 421 1024
2022-08-19 14:07:12 GMT 37.527466 21.591640 23,925 312 421 960
2022-08-19 14:07:02 GMT 37.514832 21.609524 23,775 312 418 896
2022-08-19 14:06:56 GMT 37.506207 21.621632 23,700 312 416 896
2022-08-19 14:06:52 GMT 37.501877 21.627781 23,625 312 415 896
2022-08-19 14:06:40 GMT 37.482147 21.655630 23,375 312 412 1280
2022-08-19 14:06:35 GMT 37.480278 21.658352 23,350 312 412 1280
2022-08-19 14:06:30 GMT 37.473667 21.667606 23,250 312 410 1472
2022-08-19 14:06:25 GMT 37.467224 21.676727 23,125 312 411 1792
2022-08-19 14:06:20 GMT 37.460258 21.686535 22,950 312 412 2048
2022-08-19 14:06:11 GMT 37.448868 21.702438 22,650 313 414 2048
2022-08-19 14:06:08 GMT 37.445526 21.707056 22,575 313 414 2048
2022-08-19 14:06:05 GMT 37.441498 21.712627 22,475 313 416 1984
2022-08-19 14:06:02 GMT 37.437122 21.718718 22,350 313 416 1984
2022-08-19 14:05:57 GMT 37.429535 21.728987 22,200 314 417 1728
2022-08-19 14:05:51 GMT 37.423389 21.737106 22,075 315 417 1408
2022-08-19 14:05:45 GMT 37.415176 21.747026 21,875 323 416 1280
2022-08-19 14:05:41 GMT 37.409378 21.753109 21,875 324 416 1216
2022-08-19 14:05:36 GMT 37.401512 21.760096 21,775 327 416 1152
2022-08-19 14:05:31 GMT 37.392525 21.766603 21,675 334 415 1152
2022-08-19 14:05:28 GMT 37.384567 21.771379 21,600 339 414 1280
2022-08-19 14:05:19 GMT 37.366596 21.779799 21,350 341 414 1920
2022-08-19 14:05:16 GMT 37.364960 21.780512 21,325 341 413 1920
2022-08-19 14:05:07 GMT 37.343369 21.789949 20,975 341 415 1472
2022-08-19 14:05:01 GMT 37.337967 21.792337 20,900 341 414 1472
2022-08-19 14:04:49 GMT 37.316803 21.801550 20,650 341 412 1280
2022-08-19 14:04:41 GMT 37.300964 21.808504 20,500 341 409 1024
2022-08-19 14:04:28 GMT 37.273445 21.820518 20,275 341 402 1088
2022-08-19 14:04:20 GMT 37.265347 21.824041 20,175 341 400 1280
2022-08-19 14:04:15 GMT 37.251160 21.830185 20,000 341 398 1472
2022-08-19 14:04:10 GMT 37.247890 21.831625 19,950 341 398 1472
2022-08-19 14:04:00 GMT 37.229965 21.839418 19,725 341 395 1472
2022-08-19 14:03:48 GMT 37.204269 21.850672 19,350 341 392 1664
2022-08-19 14:03:35 GMT 37.179703 21.861332 18,975 341 390 1664
2022-08-19 14:03:29 GMT 37.176636 21.862677 18,925 341 390 1600
2022-08-19 14:03:19 GMT 37.160091 21.869898 18,700 341 388 1408
2022-08-19 14:03:06 GMT 37.131821 21.882135 18,275 341 385 1792
2022-08-19 14:02:58 GMT 37.124897 21.885183 18,175 341 384 1792
2022-08-19 14:02:48 GMT 37.107441 21.892767 17,875 341 383 1920
2022-08-19 14:02:38 GMT 37.091381 21.899752 17,575 341 382 1856
2022-08-19 14:02:26 GMT 37.065357 21.911037 17,175 341 378 1600
2022-08-19 14:02:18 GMT 37.057617 21.914452 17,050 341 376 1536
2022-08-19 14:02:07 GMT 37.039986 21.922083 16,775 341 374 1856
2022-08-19 14:01:57 GMT 37.018108 21.931578 16,375 341 372 1984
2022-08-19 14:01:47 GMT 37.007027 21.936354 16,175 341 372 1664
2022-08-19 14:01:43 GMT 36.996273 21.941011 16,025 341 370 1280
2022-08-19 14:01:37 GMT 36.991432 21.943102 15,950 341 368 1280
2022-08-19 14:01:28 GMT 36.974899 21.950275 15,775 341 363 960
2022-08-19 14:01:16 GMT 36.957775 21.957729 15,625 341 355 960
2022-08-19 14:01:04 GMT 36.934452 21.967880 15,400 341 345 1024
2022-08-19 14:00:52 GMT 36.916168 21.975813 15,175 341 333 1216
2022-08-19 14:00:46 GMT 36.912689 21.977331 15,125 341 332 1152
2022-08-19 14:00:36 GMT 36.898144 21.983583 14,950 341 324 1152
2022-08-19 14:00:25 GMT 36.878128 21.992117 14,700 342 312 1216
2022-08-19 14:00:12 GMT 36.861179 21.998987 14,450 344 300 1216
2022-08-19 14:00:05 GMT 36.855972 22.000881 14,375 345 298 1216
2022-08-19 13:59:59 GMT 36.843304 22.004095 14,200 357 288 1216
2022-08-19 13:59:55 GMT 36.842102 22.004242 14,175 357 288 1216
2022-08-19 13:59:45 GMT 36.829430 22.004213 14,000 3 278 1280
2022-08-19 13:59:33 GMT 36.810158 22.002634 13,700 2 263 1280
2022-08-19 13:59:25 GMT 36.803871 22.002283 13,600 1 258 1280
2022-08-19 13:59:21 GMT 36.794083 22.002697 13,425 352 250 1408
2022-08-19 13:59:15 GMT 36.791794 22.003098 13,400 346 248 1408
2022-08-19 13:59:05 GMT 36.781342 22.008829 13,175 320 244 1472

Making use of Plane Finder data

You are free to use the raw flight data, aircraft information and images provided in this report for your own purposes provided the data is correctly attributed to Plane Finder. We ask that you please credit Plane Finder and link to planefinder.net in close proximity to the content.

Optionally one of the following logos (no smaller then 150x24px) can be used and must link to planefinder.net

Embedding the Plane Finder map

You are welcome to embed the Plane Finder playback map on your website to offer visitors a more interactive experience. We suggest using the following HTML code:

<iframe src="//planefinder.net/data/report/LX2359-HB-JBG-7700-squawk-2022-08-19/map" width="800" height="600" seamless="seamless"></iframe>

Where our data comes from

Plane Finder has a global network of data feeds and antenna radars that receive data broadcast directly from aircraft. The primary technologies used are ADS-B and MLAT. We also show feeds from the FAA and a FLARM glider feed.

Click here to find out more about the Plane Finder network.

How we collect our data